createdAt,value
2018-11-29T00:00:11.296Z,7.10
2018-11-29T00:02:39.675Z,7.20
2018-11-29T00:05:08.384Z,6.80
2018-11-29T00:07:36.741Z,6.97
2018-11-29T00:10:05.239Z,6.47
2018-11-29T00:12:33.783Z,6.33
2018-11-29T00:15:02.224Z,6.00
2018-11-29T00:17:30.652Z,7.03
2018-11-29T00:19:59.056Z,6.03
2018-11-29T00:22:27.483Z,6.70
2018-11-29T00:24:55.839Z,6.10
2018-11-29T00:27:24.205Z,6.20
2018-11-29T00:29:52.560Z,5.90
2018-11-29T00:32:20.986Z,5.77
2018-11-29T00:34:49.361Z,6.17
2018-11-29T00:37:17.751Z,5.97
2018-11-29T00:39:46.114Z,6.10
2018-11-29T00:42:14.503Z,5.43
2018-11-29T00:44:42.850Z,5.80
2018-11-29T00:47:11.259Z,5.90
2018-11-29T00:49:39.701Z,5.53
2018-11-29T00:52:08.064Z,5.67
2018-11-29T00:54:36.565Z,5.83
2018-11-29T00:57:05.675Z,5.40
2018-11-29T00:59:34.088Z,5.20
2018-11-29T01:02:02.451Z,5.00
2018-11-29T01:04:30.831Z,5.50
2018-11-29T01:06:59.252Z,5.50
2018-11-29T01:09:27.748Z,5.43
2018-11-29T01:11:56.183Z,5.00
2018-11-29T01:14:24.597Z,5.30
2018-11-29T01:16:53.048Z,5.00
2018-11-29T01:19:21.412Z,5.43
2018-11-29T01:21:50.298Z,5.10
2018-11-29T01:24:18.640Z,5.10
2018-11-29T01:26:47.057Z,5.33
2018-11-29T01:29:15.435Z,5.50
2018-11-29T01:31:43.816Z,4.80
2018-11-29T01:34:12.247Z,5.20
2018-11-29T01:36:40.599Z,5.80
2018-11-29T01:39:09.707Z,5.13
2018-11-29T01:41:38.147Z,5.40
2018-11-29T01:44:07.229Z,5.10
2018-11-29T01:46:35.585Z,4.97
2018-11-29T01:49:04.038Z,5.23
2018-11-29T01:51:32.428Z,5.20
2018-11-29T01:54:00.764Z,5.53
2018-11-29T01:56:29.261Z,5.10
2018-11-29T01:58:57.654Z,5.77
2018-11-29T02:01:26.030Z,6.00
2018-11-29T02:03:54.400Z,5.87
2018-11-29T02:06:22.748Z,5.90
2018-11-29T02:08:51.145Z,6.03
2018-11-29T02:11:19.559Z,5.50
2018-11-29T02:13:48.033Z,5.77
2018-11-29T02:16:16.417Z,6.20
2018-11-29T02:18:44.840Z,6.10
2018-11-29T02:21:13.424Z,5.87
2018-11-29T02:23:41.780Z,5.23
2018-11-29T02:26:10.293Z,5.60
2018-11-29T02:28:38.720Z,5.20
2018-11-29T02:31:07.106Z,5.80
2018-11-29T02:33:35.550Z,5.47
2018-11-29T02:36:03.920Z,5.37
2018-11-29T02:38:32.291Z,5.50
2018-11-29T02:41:00.707Z,4.73
2018-11-29T02:43:29.048Z,5.83
2018-11-29T02:45:57.454Z,5.80
2018-11-29T02:48:25.889Z,5.50
2018-11-29T02:50:54.259Z,5.87
2018-11-29T02:53:22.630Z,5.90
2018-11-29T02:55:51.074Z,5.23
2018-11-29T02:58:19.513Z,5.70
2018-11-29T03:00:48.020Z,5.40
2018-11-29T03:03:16.414Z,5.83
2018-11-29T03:05:44.765Z,5.57
2018-11-29T03:08:13.145Z,5.87
2018-11-29T03:10:41.556Z,5.27
2018-11-29T03:13:09.917Z,5.73
2018-11-29T03:15:38.316Z,5.10
2018-11-29T03:18:06.780Z,5.10
2018-11-29T03:20:35.236Z,5.67
2018-11-29T03:23:04.064Z,5.10
2018-11-29T03:25:32.464Z,4.80
2018-11-29T03:28:00.816Z,5.27
2018-11-29T03:30:29.201Z,4.97
2018-11-29T03:32:57.685Z,4.83
2018-11-29T03:35:26.132Z,5.00
2018-11-29T03:37:54.516Z,5.30
2018-11-29T03:40:23.123Z,5.10
2018-11-29T03:42:51.475Z,5.40
2018-11-29T03:45:20.611Z,5.27
2018-11-29T03:47:49.032Z,5.43
2018-11-29T03:50:18.061Z,5.00
2018-11-29T03:52:46.732Z,5.20
2018-11-29T03:55:15.174Z,4.77
2018-11-29T03:57:43.564Z,5.00
2018-11-29T04:00:16.517Z,4.97
2018-11-29T04:02:45.742Z,4.83
2018-11-29T04:05:14.112Z,5.40
2018-11-29T04:07:42.657Z,4.67
2018-11-29T04:10:12.810Z,5.10
2018-11-29T04:12:41.211Z,4.60
2018-11-29T04:15:10.793Z,4.73
2018-11-29T04:17:40.991Z,4.47
2018-11-29T04:20:09.784Z,4.80
2018-11-29T04:22:38.173Z,5.17
2018-11-29T04:25:07.935Z,4.33
2018-11-29T04:27:36.299Z,4.70
2018-11-29T04:30:04.916Z,4.13
2018-11-29T04:32:33.345Z,4.50
2018-11-29T04:35:01.715Z,4.40
2018-11-29T04:37:30.125Z,4.47
2018-11-29T04:39:58.505Z,4.33
2018-11-29T04:42:26.920Z,4.90
2018-11-29T04:44:55.312Z,4.70
2018-11-29T04:47:23.857Z,4.60
2018-11-29T04:49:52.217Z,4.70
2018-11-29T04:52:20.648Z,4.27
2018-11-29T04:54:49.071Z,4.20
2018-11-29T04:57:17.440Z,4.23
2018-11-29T04:59:45.956Z,4.73
2018-11-29T05:02:14.508Z,4.23
2018-11-29T05:04:42.974Z,4.30
2018-11-29T05:07:11.374Z,4.10
2018-11-29T05:09:39.988Z,4.00
2018-11-29T05:12:08.420Z,4.73
2018-11-29T05:14:36.780Z,4.33
2018-11-29T05:17:05.536Z,4.83
2018-11-29T05:19:33.954Z,4.77
2018-11-29T05:22:02.370Z,4.40
2018-11-29T05:24:30.743Z,3.60
2018-11-29T05:26:59.124Z,4.10
2018-11-29T05:29:28.173Z,4.10
2018-11-29T05:31:56.729Z,3.90
2018-11-29T05:34:25.083Z,4.40
2018-11-29T05:36:53.441Z,4.10
2018-11-29T05:39:21.887Z,4.33
2018-11-29T05:41:50.292Z,20.33
2018-11-29T05:44:18.681Z,4.07
2018-11-29T05:46:47.119Z,4.20
2018-11-29T05:49:15.497Z,4.10
2018-11-29T05:51:43.832Z,4.33
2018-11-29T05:54:12.342Z,4.13
2018-11-29T05:56:40.745Z,4.00
2018-11-29T05:59:09.135Z,3.60
2018-11-29T06:01:40.263Z,4.27
2018-11-29T06:04:08.636Z,4.00
2018-11-29T06:06:37.000Z,4.17
2018-11-29T06:09:08.647Z,4.13
2018-11-29T06:11:38.006Z,4.30
2018-11-29T06:14:07.320Z,3.53
2018-11-29T06:16:36.720Z,3.77
2018-11-29T06:19:06.383Z,3.90
2018-11-29T06:21:34.765Z,4.20
2018-11-29T06:24:03.346Z,4.03
2018-11-29T06:26:31.736Z,3.93
2018-11-29T06:29:00.199Z,3.97
2018-11-29T06:31:28.808Z,4.13
2018-11-29T06:33:57.206Z,4.50
2018-11-29T06:36:26.292Z,3.93
2018-11-29T06:38:54.782Z,4.63
2018-11-29T06:41:23.286Z,4.03
2018-11-29T06:43:52.297Z,4.23
2018-11-29T06:46:21.456Z,4.27
2018-11-29T06:48:49.799Z,3.77
2018-11-29T06:51:18.212Z,4.00
2018-11-29T06:53:51.977Z,3.80
2018-11-29T06:56:20.779Z,4.30
2018-11-29T06:58:49.138Z,3.90
2018-11-29T07:01:17.589Z,4.00
2018-11-29T07:03:45.968Z,3.90
2018-11-29T07:06:14.340Z,4.13
2018-11-29T07:08:42.807Z,4.03
2018-11-29T07:11:11.192Z,3.80
2018-11-29T07:13:39.648Z,4.10
2018-11-29T07:16:08.122Z,3.70
2018-11-29T07:18:36.496Z,3.90
2018-11-29T07:21:16.088Z,4.00
2018-11-29T07:23:44.510Z,3.93
2018-11-29T07:26:12.888Z,3.60
2018-11-29T07:28:41.369Z,4.43
2018-11-29T07:31:09.716Z,4.43
2018-11-29T07:33:38.077Z,4.13
2018-11-29T07:36:06.806Z,4.10
2018-11-29T07:38:35.152Z,4.10
2018-11-29T07:41:03.572Z,4.10
2018-11-29T07:43:32.018Z,3.40
2018-11-29T07:46:00.356Z,4.27
2018-11-29T07:48:28.724Z,4.10
2018-11-29T07:50:57.131Z,4.10
2018-11-29T07:53:25.516Z,4.10
2018-11-29T07:55:54.184Z,3.80
2018-11-29T07:58:22.560Z,4.03
2018-11-29T08:00:50.947Z,4.30
2018-11-29T08:03:19.319Z,4.60
2018-11-29T08:05:47.688Z,3.97
2018-11-29T08:08:16.020Z,4.80
2018-11-29T08:10:44.420Z,4.93
2018-11-29T08:13:12.800Z,4.93
2018-11-29T08:15:41.206Z,5.30
2018-11-29T08:18:10.577Z,5.10
2018-11-29T08:20:38.990Z,5.07
2018-11-29T08:23:07.392Z,5.27
2018-11-29T08:25:35.859Z,5.40
2018-11-29T08:28:04.266Z,5.30
2018-11-29T08:30:32.648Z,5.50
2018-11-29T08:33:01.134Z,5.13
2018-11-29T08:35:29.538Z,5.80
2018-11-29T08:37:57.916Z,5.23
2018-11-29T08:40:26.281Z,5.57
2018-11-29T08:42:54.669Z,6.30
2018-11-29T08:45:23.196Z,5.83
2018-11-29T08:47:51.646Z,5.83
2018-11-29T08:50:20.096Z,5.60
2018-11-29T08:52:48.437Z,6.43
2018-11-29T08:55:17.631Z,5.50
2018-11-29T08:57:46.592Z,6.00
2018-11-29T09:00:18.694Z,6.67
2018-11-29T09:02:47.058Z,6.60
2018-11-29T09:05:15.720Z,6.83
2018-11-29T09:07:45.070Z,7.40
2018-11-29T09:10:14.673Z,6.73
2018-11-29T09:12:43.060Z,6.87
2018-11-29T09:15:12.507Z,6.63
2018-11-29T09:17:41.025Z,6.67
2018-11-29T09:20:11.873Z,7.33
2018-11-29T09:22:40.260Z,7.30
2018-11-29T09:25:12.032Z,7.27
2018-11-29T09:27:40.425Z,6.60
2018-11-29T09:30:13.596Z,7.73
2018-11-29T09:32:42.460Z,7.30
2018-11-29T09:35:11.616Z,7.17
2018-11-29T09:37:40.074Z,8.00
2018-11-29T09:40:10.710Z,8.50
2018-11-29T09:42:39.602Z,8.47
2018-11-29T09:45:11.463Z,7.77
2018-11-29T09:47:39.980Z,8.00
2018-11-29T09:50:10.541Z,7.37
2018-11-29T09:52:39.273Z,8.10
2018-11-29T09:55:08.811Z,7.63
2018-11-29T09:57:37.228Z,8.70
2018-11-29T10:00:12.900Z,7.80
2018-11-29T10:02:41.932Z,8.10
2018-11-29T10:05:11.213Z,10.53
2018-11-29T10:07:39.631Z,8.93
2018-11-29T10:10:09.601Z,8.47
2018-11-29T10:12:38.279Z,8.27
2018-11-29T10:15:09.060Z,8.17
2018-11-29T10:17:37.446Z,8.50
2018-11-29T10:20:07.913Z,8.40
2018-11-29T10:22:36.333Z,8.57
2018-11-29T10:25:06.076Z,8.50
2018-11-29T10:27:34.446Z,8.50
2018-11-29T10:30:03.068Z,8.90
2018-11-29T10:32:31.448Z,8.40
2018-11-29T10:34:59.839Z,9.33
2018-11-29T10:37:28.296Z,9.53
2018-11-29T10:39:56.656Z,8.67
2018-11-29T10:42:25.067Z,6.17
2018-11-29T10:44:53.468Z,9.10
2018-11-29T10:47:21.803Z,8.60
2018-11-29T10:49:50.362Z,8.73
2018-11-29T10:52:18.781Z,8.63
2018-11-29T10:54:47.178Z,7.87
2018-11-29T10:57:15.615Z,8.23
2018-11-29T10:59:44.038Z,8.43
2018-11-29T11:02:13.399Z,6.83
2018-11-29T11:04:41.823Z,8.80
2018-11-29T11:07:10.169Z,8.37
2018-11-29T11:09:38.540Z,8.37
2018-11-29T11:12:06.959Z,8.20
2018-11-29T11:14:36.274Z,8.07
2018-11-29T11:17:03.979Z,7.80
2018-11-29T11:19:32.428Z,8.17
2018-11-29T11:22:00.847Z,8.00
2018-11-29T11:24:29.225Z,7.97
2018-11-29T11:26:57.645Z,8.13
2018-11-29T11:29:25.992Z,7.30
2018-11-29T11:31:54.376Z,8.17
2018-11-29T11:34:22.806Z,7.93
2018-11-29T11:36:51.194Z,8.67
2018-11-29T11:39:19.649Z,8.10
2018-11-29T11:41:48.113Z,9.13
2018-11-29T11:44:16.481Z,8.60
2018-11-29T11:46:44.850Z,8.10
2018-11-29T11:49:13.854Z,7.43
2018-11-29T11:51:42.397Z,8.80
2018-11-29T11:54:10.800Z,8.13
2018-11-29T11:56:39.280Z,8.17
2018-11-29T11:59:07.736Z,7.57
2018-11-29T12:01:36.110Z,7.27
2018-11-29T12:04:04.585Z,7.97
2018-11-29T12:06:33.752Z,8.17
2018-11-29T12:09:02.949Z,7.70
2018-11-29T12:11:31.350Z,7.87
2018-11-29T12:13:59.712Z,7.67
2018-11-29T12:16:28.076Z,7.70
2018-11-29T12:19:02.276Z,7.13
2018-11-29T12:21:25.551Z,7.20
2018-11-29T12:23:54.121Z,7.07
2018-11-29T12:26:22.588Z,7.40
2018-11-29T12:28:50.948Z,7.27
2018-11-29T12:31:19.465Z,7.53
2018-11-29T12:33:47.883Z,7.43
2018-11-29T12:36:16.312Z,7.67
2018-11-29T12:38:44.917Z,7.67
2018-11-29T12:41:13.387Z,7.97
2018-11-29T12:43:41.758Z,7.90
2018-11-29T12:46:10.176Z,8.13
2018-11-29T12:48:38.590Z,7.97
2018-11-29T12:51:06.988Z,8.40
2018-11-29T12:53:35.400Z,8.53
2018-11-29T12:56:03.821Z,7.50
2018-11-29T12:58:32.193Z,8.00
2018-11-29T13:01:01.212Z,7.70
2018-11-29T13:03:29.581Z,7.67
2018-11-29T13:05:57.944Z,7.87
2018-11-29T13:08:26.324Z,7.90
2018-11-29T13:10:54.686Z,7.87
2018-11-29T13:13:23.192Z,7.40
2018-11-29T13:15:51.630Z,7.47
2018-11-29T13:18:20.019Z,6.80
2018-11-29T13:20:48.416Z,7.73
2018-11-29T13:23:16.816Z,7.07
2018-11-29T13:25:45.220Z,7.33
2018-11-29T13:28:13.600Z,7.27
2018-11-29T13:30:42.066Z,7.10
2018-11-29T13:33:10.583Z,7.23
2018-11-29T13:35:38.969Z,7.47
2018-11-29T13:38:12.943Z,7.17
2018-11-29T13:40:43.012Z,6.73
2018-11-29T13:43:11.389Z,6.67
2018-11-29T13:45:39.910Z,6.57
2018-11-29T13:48:09.583Z,6.30
2018-11-29T13:50:38.624Z,6.57
2018-11-29T13:53:07.046Z,6.10
2018-11-29T13:55:35.623Z,6.00
2018-11-29T13:58:04.088Z,6.37
2018-11-29T14:00:32.469Z,5.83
2018-11-29T14:03:02.800Z,5.73
2018-11-29T14:05:31.214Z,5.90
2018-11-29T14:07:59.674Z,5.90
2018-11-29T14:10:28.081Z,10.17
2018-11-29T14:12:56.612Z,5.63
2018-11-29T14:15:27.178Z,5.80
2018-11-29T14:17:55.622Z,5.30
2018-11-29T14:20:24.235Z,5.30
2018-11-29T14:22:52.692Z,5.00
2018-11-29T14:25:21.072Z,5.30
2018-11-29T14:27:54.618Z,6.10
2018-11-29T14:30:25.109Z,5.17
2018-11-29T14:32:54.462Z,4.90
2018-11-29T14:35:22.937Z,5.37
2018-11-29T14:37:51.690Z,5.17
2018-11-29T14:40:22.483Z,5.67
2018-11-29T14:42:50.896Z,5.60
2018-11-29T14:45:21.422Z,5.53
2018-11-29T14:47:50.048Z,4.80
2018-11-29T14:50:52.106Z,5.20
2018-11-29T14:53:20.559Z,4.50
2018-11-29T14:55:48.965Z,4.80
2018-11-29T14:58:19.671Z,4.50
2018-11-29T15:00:45.843Z,4.33
2018-11-29T15:03:16.578Z,4.50
2018-11-29T15:05:45.339Z,4.00
2018-11-29T15:08:13.849Z,4.13
2018-11-29T15:10:42.369Z,3.90
2018-11-29T15:13:11.699Z,3.87
2018-11-29T15:15:40.851Z,3.50
2018-11-29T15:18:10.137Z,3.93
2018-11-29T15:20:46.447Z,3.43
2018-11-29T15:23:16.303Z,4.07
2018-11-29T15:25:44.697Z,4.10
2018-11-29T15:28:13.149Z,3.77
2018-11-29T15:30:41.648Z,3.80
2018-11-29T15:33:10.852Z,3.77
2018-11-29T15:35:40.005Z,3.90
2018-11-29T15:38:09.118Z,3.53
2018-11-29T15:40:37.573Z,3.87
2018-11-29T15:43:06.048Z,3.90
2018-11-29T15:45:35.092Z,4.20
2018-11-29T15:48:03.595Z,4.00
2018-11-29T15:50:32.027Z,4.30
2018-11-29T15:53:00.444Z,4.20
2018-11-29T15:55:28.870Z,4.10
2018-11-29T15:57:57.900Z,4.10
2018-11-29T16:00:27.606Z,3.90
2018-11-29T16:02:58.034Z,4.47
2018-11-29T16:05:26.444Z,3.90
2018-11-29T16:07:56.191Z,4.27
2018-11-29T16:10:25.837Z,4.23
2018-11-29T16:12:57.152Z,4.17
2018-11-29T16:15:25.672Z,4.53
2018-11-29T16:17:54.644Z,4.30
2018-11-29T16:20:27.676Z,4.43
2018-11-29T16:22:56.184Z,4.33
2018-11-29T16:25:24.671Z,4.70
2018-11-29T16:27:53.133Z,5.00
2018-11-29T16:30:32.582Z,4.73
2018-11-29T16:33:04.589Z,4.87
2018-11-29T16:35:33.169Z,4.50
2018-11-29T16:38:01.641Z,5.07
2018-11-29T16:40:30.067Z,8.17
2018-11-29T16:42:59.579Z,4.63
2018-11-29T16:45:28.278Z,4.90
2018-11-29T16:47:56.732Z,4.70
2018-11-29T16:50:25.412Z,5.00
2018-11-29T16:52:53.940Z,4.93
2018-11-29T16:55:22.548Z,4.60
2018-11-29T16:57:52.937Z,5.20
2018-11-29T17:00:22.077Z,4.77
2018-11-29T17:02:50.515Z,5.10
2018-11-29T17:05:19.125Z,5.10
2018-11-29T17:07:47.701Z,5.17
2018-11-29T17:10:19.180Z,4.70
2018-11-29T17:12:50.271Z,4.67
2018-11-29T17:15:19.175Z,4.90
2018-11-29T17:17:49.771Z,5.30
2018-11-29T17:20:19.281Z,5.03
2018-11-29T17:22:49.844Z,5.23
2018-11-29T17:25:19.034Z,5.00
2018-11-29T17:27:48.056Z,5.10
2018-11-29T17:30:21.105Z,5.27
2018-11-29T17:32:51.864Z,4.40
2018-11-29T17:35:24.758Z,5.13
2018-11-29T17:37:54.467Z,5.10
2018-11-29T17:40:28.173Z,4.90
2018-11-29T17:42:57.125Z,4.90
2018-11-29T17:45:28.115Z,5.43
2018-11-29T17:48:01.163Z,5.23
2018-11-29T17:50:36.032Z,5.40
2018-11-29T17:53:05.002Z,5.20
2018-11-29T17:55:33.461Z,5.57
2018-11-29T17:58:02.384Z,5.33
2018-11-29T18:00:32.436Z,5.43
2018-11-29T18:03:01.024Z,5.17
2018-11-29T18:05:29.614Z,5.67
2018-11-29T18:08:01.116Z,5.00
2018-11-29T18:10:32.435Z,5.50
2018-11-29T18:13:06.725Z,5.27
2018-11-29T18:15:35.772Z,5.60
2018-11-29T18:18:04.214Z,5.67
2018-11-29T18:20:32.597Z,5.47
2018-11-29T18:23:00.992Z,5.90
2018-11-29T18:25:29.371Z,6.00
2018-11-29T18:27:57.769Z,5.47
2018-11-29T18:30:26.337Z,5.60
2018-11-29T18:32:54.705Z,6.40
2018-11-29T18:35:23.506Z,5.57
2018-11-29T18:37:52.036Z,5.60
2018-11-29T18:40:21.420Z,5.43
2018-11-29T18:42:56.177Z,5.27
2018-11-29T18:45:25.018Z,5.70
2018-11-29T18:47:53.782Z,5.50
2018-11-29T18:50:23.022Z,5.10
2018-11-29T18:52:51.701Z,5.23
2018-11-29T18:55:20.911Z,5.20
2018-11-29T18:57:49.356Z,5.13
2018-11-29T19:00:19.011Z,5.20
2018-11-29T19:02:47.406Z,5.20
2018-11-29T19:05:15.844Z,4.97
2018-11-29T19:07:44.382Z,5.30
2018-11-29T19:10:15.968Z,4.37
2018-11-29T19:12:45.780Z,4.97
2018-11-29T19:15:14.336Z,5.30
2018-11-29T19:17:42.720Z,4.33
2018-11-29T19:20:12.260Z,4.67
2018-11-29T19:22:40.668Z,4.90
2018-11-29T19:25:10.712Z,5.00
2018-11-29T19:27:39.085Z,4.77
2018-11-29T19:30:10.558Z,4.93
2018-11-29T19:32:39.011Z,5.20
2018-11-29T19:35:08.256Z,4.97
2018-11-29T19:37:36.710Z,4.43
2018-11-29T19:40:08.057Z,4.60
2018-11-29T19:42:36.441Z,4.70
2018-11-29T19:45:05.499Z,4.63
2018-11-29T19:47:33.869Z,7.10
2018-11-29T19:50:02.510Z,4.57
2018-11-29T19:52:31.012Z,4.97
2018-11-29T19:54:59.718Z,4.97
2018-11-29T19:57:28.240Z,4.40
2018-11-29T19:59:56.621Z,4.60
2018-11-29T20:02:25.041Z,4.67
2018-11-29T20:04:53.501Z,4.13
2018-11-29T20:07:21.892Z,4.00
2018-11-29T20:09:50.400Z,4.43
2018-11-29T20:12:19.800Z,4.03
2018-11-29T20:14:48.309Z,4.07
2018-11-29T20:17:16.759Z,4.03
2018-11-29T20:19:45.557Z,3.93
2018-11-29T20:22:14.101Z,4.03
2018-11-29T20:24:42.861Z,3.60
2018-11-29T20:27:11.388Z,4.20
2018-11-29T20:29:39.772Z,3.50
2018-11-29T20:32:08.272Z,3.93
2018-11-29T20:34:37.445Z,4.00
2018-11-29T20:37:06.069Z,3.80
2018-11-29T20:39:34.505Z,3.80
2018-11-29T20:42:02.913Z,4.00
2018-11-29T20:44:31.361Z,4.00
2018-11-29T20:46:59.785Z,4.10
2018-11-29T20:49:28.314Z,3.80
2018-11-29T20:51:56.713Z,4.07
2018-11-29T20:54:25.200Z,3.73
2018-11-29T20:56:53.613Z,4.17
2018-11-29T20:59:22.116Z,4.20
2018-11-29T21:01:50.488Z,4.70
2018-11-29T21:04:19.052Z,4.33
2018-11-29T21:06:47.453Z,4.47
2018-11-29T21:09:15.864Z,4.47
2018-11-29T21:11:47.795Z,4.20
2018-11-29T21:14:12.909Z,4.60
2018-11-29T21:16:41.341Z,4.77
2018-11-29T21:19:09.976Z,4.50
2018-11-29T21:21:38.372Z,4.70
2018-11-29T21:24:06.813Z,4.20
2018-11-29T21:26:35.291Z,4.10
2018-11-29T21:29:03.712Z,4.50
2018-11-29T21:31:32.180Z,4.13
2018-11-29T21:34:00.692Z,3.93
2018-11-29T21:36:29.147Z,4.50
2018-11-29T21:38:57.574Z,4.47
2018-11-29T21:41:26.097Z,4.30
2018-11-29T21:43:54.524Z,4.77
2018-11-29T21:46:22.871Z,4.40
2018-11-29T21:48:51.367Z,4.60
2018-11-29T21:51:19.769Z,4.43
2018-11-29T21:53:48.111Z,4.50
2018-11-29T21:56:16.567Z,4.60
2018-11-29T21:58:44.960Z,4.67
2018-11-29T22:01:13.356Z,5.53
2018-11-29T22:03:41.800Z,6.03
2018-11-29T22:06:10.209Z,6.63
2018-11-29T22:08:38.584Z,7.30
2018-11-29T22:11:06.949Z,5.97
2018-11-29T22:13:35.342Z,6.20
2018-11-29T22:16:03.721Z,5.60
2018-11-29T22:18:32.452Z,4.67
2018-11-29T22:21:02.797Z,4.60
2018-11-29T22:23:32.412Z,4.77
2018-11-29T22:26:02.066Z,5.07
2018-11-29T22:28:30.777Z,4.77
2018-11-29T22:30:59.228Z,4.50
2018-11-29T22:33:27.605Z,4.13
2018-11-29T22:35:56.068Z,4.30
2018-11-29T22:38:24.432Z,4.20
2018-11-29T22:40:52.820Z,4.70
2018-11-29T22:43:21.234Z,4.20
2018-11-29T22:45:49.592Z,4.57
2018-11-29T22:48:17.979Z,4.20
2018-11-29T22:50:46.416Z,4.03
2018-11-29T22:53:14.805Z,4.23
2018-11-29T22:55:43.170Z,4.40
2018-11-29T22:58:11.676Z,4.30
2018-11-29T23:00:45.473Z,4.13
2018-11-29T23:03:13.884Z,4.20
2018-11-29T23:05:42.262Z,4.00
2018-11-29T23:08:10.756Z,3.67
2018-11-29T23:10:39.118Z,3.93
2018-11-29T23:13:07.605Z,3.90
2018-11-29T23:15:36.025Z,3.47
2018-11-29T23:18:04.408Z,3.80
2018-11-29T23:20:32.828Z,3.80
2018-11-29T23:23:01.373Z,3.90
2018-11-29T23:25:29.745Z,3.60
2018-11-29T23:27:58.159Z,3.50
2018-11-29T23:30:26.551Z,3.83
2018-11-29T23:32:54.937Z,3.70
2018-11-29T23:35:23.317Z,3.50
2018-11-29T23:37:51.803Z,3.30
2018-11-29T23:40:20.212Z,3.40
2018-11-29T23:42:48.584Z,3.70
2018-11-29T23:45:17.049Z,3.40
2018-11-29T23:47:46.319Z,3.53
2018-11-29T23:50:16.602Z,3.43
2018-11-29T23:52:45.110Z,3.63
2018-11-29T23:55:18.474Z,3.70
2018-11-29T23:57:46.936Z,3.30
